sensor_id;sensor_type;location;lat;lon;timestamp;P1;durP1;ratioP1;P2;durP2;ratioP2
57113;SDS011;42994;51.606;9.988;2023-04-15T00:00:42;10.45;;;6.95;;
57113;SDS011;42994;51.606;9.988;2023-04-15T00:03:09;9.10;;;6.40;;
57113;SDS011;42994;51.606;9.988;2023-04-15T00:05:38;10.50;;;6.72;;
57113;SDS011;42994;51.606;9.988;2023-04-15T00:08:04;10.60;;;7.32;;
57113;SDS011;42994;51.606;9.988;2023-04-15T00:10:32;10.77;;;6.95;;
57113;SDS011;42994;51.606;9.988;2023-04-15T00:12:58;9.43;;;6.95;;
57113;SDS011;42994;51.606;9.988;2023-04-15T00:15:26;7.40;;;6.00;;
57113;SDS011;42994;51.606;9.988;2023-04-15T00:17:52;7.68;;;6.45;;
57113;SDS011;42994;51.606;9.988;2023-04-15T00:20:19;9.45;;;6.28;;
57113;SDS011;42994;51.606;9.988;2023-04-15T00:22:47;8.68;;;6.13;;
57113;SDS011;42994;51.606;9.988;2023-04-15T00:25:13;8.70;;;6.40;;
57113;SDS011;42994;51.606;9.988;2023-04-15T00:27:40;8.32;;;5.43;;
57113;SDS011;42994;51.606;9.988;2023-04-15T00:30:07;9.38;;;7.03;;
57113;SDS011;42994;51.606;9.988;2023-04-15T00:32:35;10.10;;;6.85;;
57113;SDS011;42994;51.606;9.988;2023-04-15T00:35:02;10.00;;;8.00;;
57113;SDS011;42994;51.606;9.988;2023-04-15T00:37:29;10.32;;;7.53;;
57113;SDS011;42994;51.606;9.988;2023-04-15T00:39:57;9.38;;;6.18;;
57113;SDS011;42994;51.606;9.988;2023-04-15T00:42:24;8.52;;;5.55;;
57113;SDS011;42994;51.606;9.988;2023-04-15T00:44:51;10.35;;;6.40;;
57113;SDS011;42994;51.606;9.988;2023-04-15T00:47:17;10.73;;;6.90;;
57113;SDS011;42994;51.606;9.988;2023-04-15T00:49:46;8.50;;;6.93;;
57113;SDS011;42994;51.606;9.988;2023-04-15T00:52:12;11.15;;;7.10;;
57113;SDS011;42994;51.606;9.988;2023-04-15T00:54:39;9.80;;;7.78;;
57113;SDS011;42994;51.606;9.988;2023-04-15T00:57:07;9.52;;;7.18;;
57113;SDS011;42994;51.606;9.988;2023-04-15T00:59:34;9.30;;;6.95;;
57113;SDS011;42994;51.606;9.988;2023-04-15T01:02:01;9.00;;;6.18;;
57113;SDS011;42994;51.606;9.988;2023-04-15T01:04:27;7.40;;;6.25;;
57113;SDS011;42994;51.606;9.988;2023-04-15T01:06:56;8.15;;;6.25;;
57113;SDS011;42994;51.606;9.988;2023-04-15T01:09:23;11.85;;;7.78;;
57113;SDS011;42994;51.606;9.988;2023-04-15T01:11:50;11.38;;;6.53;;
57113;SDS011;42994;51.606;9.988;2023-04-15T01:14:19;12.23;;;8.30;;
57113;SDS011;42994;51.606;9.988;2023-04-15T01:16:46;10.95;;;7.90;;
57113;SDS011;42994;51.606;9.988;2023-04-15T01:19:13;11.23;;;7.20;;
57113;SDS011;42994;51.606;9.988;2023-04-15T01:21:42;11.27;;;7.55;;
57113;SDS011;42994;51.606;9.988;2023-04-15T01:24:09;10.25;;;6.35;;
57113;SDS011;42994;51.606;9.988;2023-04-15T01:26:38;10.75;;;7.57;;
57113;SDS011;42994;51.606;9.988;2023-04-15T01:29:09;8.85;;;7.10;;
57113;SDS011;42994;51.606;9.988;2023-04-15T01:31:36;8.93;;;7.10;;
57113;SDS011;42994;51.606;9.988;2023-04-15T01:34:02;13.77;;;7.50;;
57113;SDS011;42994;51.606;9.988;2023-04-15T01:36:30;10.57;;;8.40;;
57113;SDS011;42994;51.606;9.988;2023-04-15T01:38:57;9.13;;;7.68;;
57113;SDS011;42994;51.606;9.988;2023-04-15T01:41:24;13.13;;;9.85;;
57113;SDS011;42994;51.606;9.988;2023-04-15T01:43:53;10.05;;;7.55;;
57113;SDS011;42994;51.606;9.988;2023-04-15T01:46:21;10.73;;;8.50;;
57113;SDS011;42994;51.606;9.988;2023-04-15T01:48:48;10.07;;;7.38;;
57113;SDS011;42994;51.606;9.988;2023-04-15T01:51:15;12.18;;;8.90;;
57113;SDS011;42994;51.606;9.988;2023-04-15T01:53:41;9.68;;;7.57;;
57113;SDS011;42994;51.606;9.988;2023-04-15T01:56:08;9.27;;;7.63;;
57113;SDS011;42994;51.606;9.988;2023-04-15T01:58:35;11.75;;;8.48;;
57113;SDS011;42994;51.606;9.988;2023-04-15T02:01:03;10.23;;;8.00;;
57113;SDS011;42994;51.606;9.988;2023-04-15T02:03:30;9.85;;;8.27;;
57113;SDS011;42994;51.606;9.988;2023-04-15T02:05:57;12.93;;;8.23;;
57113;SDS011;42994;51.606;9.988;2023-04-15T02:08:26;11.65;;;8.18;;
57113;SDS011;42994;51.606;9.988;2023-04-15T02:10:53;9.75;;;7.45;;
57113;SDS011;42994;51.606;9.988;2023-04-15T02:13:20;10.18;;;7.82;;
57113;SDS011;42994;51.606;9.988;2023-04-15T02:15:47;9.27;;;7.47;;
57113;SDS011;42994;51.606;9.988;2023-04-15T02:18:19;12.82;;;8.05;;
57113;SDS011;42994;51.606;9.988;2023-04-15T02:20:45;9.57;;;7.47;;
57113;SDS011;42994;51.606;9.988;2023-04-15T02:23:12;11.93;;;7.88;;
57113;SDS011;42994;51.606;9.988;2023-04-15T02:25:42;12.38;;;8.15;;
57113;SDS011;42994;51.606;9.988;2023-04-15T02:28:09;10.70;;;7.78;;
57113;SDS011;42994;51.606;9.988;2023-04-15T02:30:35;12.85;;;8.90;;
57113;SDS011;42994;51.606;9.988;2023-04-15T02:33:02;13.52;;;9.93;;
57113;SDS011;42994;51.606;9.988;2023-04-15T02:35:30;12.38;;;8.45;;
57113;SDS011;42994;51.606;9.988;2023-04-15T02:37:57;15.18;;;9.57;;
57113;SDS011;42994;51.606;9.988;2023-04-15T02:40:26;12.40;;;9.43;;
57113;SDS011;42994;51.606;9.988;2023-04-15T02:42:52;14.23;;;9.65;;
57113;SDS011;42994;51.606;9.988;2023-04-15T02:45:19;16.08;;;10.65;;
57113;SDS011;42994;51.606;9.988;2023-04-15T02:47:48;14.55;;;10.43;;
57113;SDS011;42994;51.606;9.988;2023-04-15T02:50:15;15.60;;;9.27;;
57113;SDS011;42994;51.606;9.988;2023-04-15T02:52:43;14.88;;;10.15;;
57113;SDS011;42994;51.606;9.988;2023-04-15T02:55:10;10.90;;;8.82;;
57113;SDS011;42994;51.606;9.988;2023-04-15T02:57:37;13.02;;;9.27;;
57113;SDS011;42994;51.606;9.988;2023-04-15T03:00:07;14.15;;;9.68;;
57113;SDS011;42994;51.606;9.988;2023-04-15T03:02:39;13.70;;;9.68;;
57113;SDS011;42994;51.606;9.988;2023-04-15T03:05:10;12.40;;;8.55;;
57113;SDS011;42994;51.606;9.988;2023-04-15T03:07:38;14.18;;;9.27;;
57113;SDS011;42994;51.606;9.988;2023-04-15T03:10:07;12.50;;;8.88;;
57113;SDS011;42994;51.606;9.988;2023-04-15T03:12:34;11.88;;;8.55;;
57113;SDS011;42994;51.606;9.988;2023-04-15T03:15:02;12.45;;;9.20;;
57113;SDS011;42994;51.606;9.988;2023-04-15T03:17:35;13.65;;;9.63;;
57113;SDS011;42994;51.606;9.988;2023-04-15T03:20:03;13.40;;;9.63;;
57113;SDS011;42994;51.606;9.988;2023-04-15T03:22:31;12.88;;;9.52;;
57113;SDS011;42994;51.606;9.988;2023-04-15T03:24:58;13.10;;;9.32;;
57113;SDS011;42994;51.606;9.988;2023-04-15T03:27:27;12.75;;;9.25;;
57113;SDS011;42994;51.606;9.988;2023-04-15T03:29:58;14.40;;;10.13;;
57113;SDS011;42994;51.606;9.988;2023-04-15T03:32:25;17.70;;;10.25;;
57113;SDS011;42994;51.606;9.988;2023-04-15T03:34:52;13.63;;;9.60;;
57113;SDS011;42994;51.606;9.988;2023-04-15T03:37:19;14.90;;;10.65;;
57113;SDS011;42994;51.606;9.988;2023-04-15T03:39:45;17.35;;;10.70;;
57113;SDS011;42994;51.606;9.988;2023-04-15T03:42:12;16.73;;;12.65;;
57113;SDS011;42994;51.606;9.988;2023-04-15T03:44:40;16.00;;;11.48;;
57113;SDS011;42994;51.606;9.988;2023-04-15T03:47:07;16.40;;;10.70;;
57113;SDS011;42994;51.606;9.988;2023-04-15T03:49:33;18.00;;;12.50;;
57113;SDS011;42994;51.606;9.988;2023-04-15T03:52:00;18.13;;;12.68;;
57113;SDS011;42994;51.606;9.988;2023-04-15T03:54:27;18.58;;;12.77;;
57113;SDS011;42994;51.606;9.988;2023-04-15T03:56:54;17.88;;;13.05;;
57113;SDS011;42994;51.606;9.988;2023-04-15T03:59:20;21.83;;;14.63;;
57113;SDS011;42994;51.606;9.988;2023-04-15T04:01:49;21.25;;;15.48;;
57113;SDS011;42994;51.606;9.988;2023-04-15T04:04:15;19.38;;;13.85;;
57113;SDS011;42994;51.606;9.988;2023-04-15T04:06:42;21.88;;;15.70;;
57113;SDS011;42994;51.606;9.988;2023-04-15T04:09:09;23.52;;;15.88;;
57113;SDS011;42994;51.606;9.988;2023-04-15T04:11:36;23.98;;;16.38;;
57113;SDS011;42994;51.606;9.988;2023-04-15T04:14:03;18.77;;;15.05;;
57113;SDS011;42994;51.606;9.988;2023-04-15T04:16:30;21.95;;;14.73;;
57113;SDS011;42994;51.606;9.988;2023-04-15T04:18:58;21.65;;;14.68;;
57113;SDS011;42994;51.606;9.988;2023-04-15T04:21:25;24.73;;;16.75;;
57113;SDS011;42994;51.606;9.988;2023-04-15T04:23:52;23.52;;;15.65;;
57113;SDS011;42994;51.606;9.988;2023-04-15T04:26:18;25.60;;;16.02;;
57113;SDS011;42994;51.606;9.988;2023-04-15T04:28:45;22.17;;;15.25;;
57113;SDS011;42994;51.606;9.988;2023-04-15T04:31:12;23.15;;;14.65;;
57113;SDS011;42994;51.606;9.988;2023-04-15T04:33:39;22.52;;;15.48;;
57113;SDS011;42994;51.606;9.988;2023-04-15T04:36:07;22.83;;;16.02;;
57113;SDS011;42994;51.606;9.988;2023-04-15T04:38:34;25.58;;;16.33;;
57113;SDS011;42994;51.606;9.988;2023-04-15T04:41:01;20.17;;;14.30;;
57113;SDS011;42994;51.606;9.988;2023-04-15T04:43:27;25.92;;;16.92;;
57113;SDS011;42994;51.606;9.988;2023-04-15T04:45:54;26.67;;;16.98;;
57113;SDS011;42994;51.606;9.988;2023-04-15T04:48:21;24.35;;;15.82;;
57113;SDS011;42994;51.606;9.988;2023-04-15T04:50:47;28.67;;;16.98;;
57113;SDS011;42994;51.606;9.988;2023-04-15T04:53:15;25.65;;;16.73;;
57113;SDS011;42994;51.606;9.988;2023-04-15T04:55:42;23.05;;;15.48;;
57113;SDS011;42994;51.606;9.988;2023-04-15T04:58:09;23.17;;;15.80;;
57113;SDS011;42994;51.606;9.988;2023-04-15T05:00:36;27.88;;;15.25;;
57113;SDS011;42994;51.606;9.988;2023-04-15T05:03:03;26.85;;;15.95;;
57113;SDS011;42994;51.606;9.988;2023-04-15T05:05:30;25.63;;;16.33;;
57113;SDS011;42994;51.606;9.988;2023-04-15T05:07:56;24.70;;;16.02;;
57113;SDS011;42994;51.606;9.988;2023-04-15T05:10:25;21.25;;;14.52;;
57113;SDS011;42994;51.606;9.988;2023-04-15T05:12:51;23.90;;;15.80;;
57113;SDS011;42994;51.606;9.988;2023-04-15T05:15:18;27.98;;;15.07;;
57113;SDS011;42994;51.606;9.988;2023-04-15T05:17:45;26.27;;;16.30;;
57113;SDS011;42994;51.606;9.988;2023-04-15T05:20:12;25.90;;;15.00;;
57113;SDS011;42994;51.606;9.988;2023-04-15T05:22:39;24.33;;;14.57;;
57113;SDS011;42994;51.606;9.988;2023-04-15T05:25:07;22.45;;;14.65;;
57113;SDS011;42994;51.606;9.988;2023-04-15T05:27:35;25.10;;;15.00;;
57113;SDS011;42994;51.606;9.988;2023-04-15T05:30:02;22.17;;;13.57;;
57113;SDS011;42994;51.606;9.988;2023-04-15T05:32:29;28.45;;;15.90;;
57113;SDS011;42994;51.606;9.988;2023-04-15T05:34:56;24.02;;;14.10;;
57113;SDS011;42994;51.606;9.988;2023-04-15T05:37:23;26.50;;;15.35;;
57113;SDS011;42994;51.606;9.988;2023-04-15T05:39:50;24.23;;;14.48;;
57113;SDS011;42994;51.606;9.988;2023-04-15T05:42:17;21.25;;;13.43;;
57113;SDS011;42994;51.606;9.988;2023-04-15T05:44:45;21.92;;;13.07;;
57113;SDS011;42994;51.606;9.988;2023-04-15T05:47:12;22.13;;;13.52;;
57113;SDS011;42994;51.606;9.988;2023-04-15T05:49:38;24.00;;;14.70;;
57113;SDS011;42994;51.606;9.988;2023-04-15T05:52:05;25.90;;;15.45;;
57113;SDS011;42994;51.606;9.988;2023-04-15T05:54:32;21.88;;;13.95;;
57113;SDS011;42994;51.606;9.988;2023-04-15T05:56:58;23.63;;;14.35;;
57113;SDS011;42994;51.606;9.988;2023-04-15T05:59:26;22.85;;;14.27;;
57113;SDS011;42994;51.606;9.988;2023-04-15T06:01:54;20.75;;;12.38;;
57113;SDS011;42994;51.606;9.988;2023-04-15T06:04:21;19.85;;;13.15;;
57113;SDS011;42994;51.606;9.988;2023-04-15T06:06:48;26.70;;;15.15;;
57113;SDS011;42994;51.606;9.988;2023-04-15T06:09:14;24.58;;;14.13;;
57113;SDS011;42994;51.606;9.988;2023-04-15T06:11:41;25.60;;;14.75;;
57113;SDS011;42994;51.606;9.988;2023-04-15T06:14:08;22.45;;;13.45;;
57113;SDS011;42994;51.606;9.988;2023-04-15T06:16:35;22.40;;;13.43;;
57113;SDS011;42994;51.606;9.988;2023-04-15T06:19:03;23.33;;;15.15;;
57113;SDS011;42994;51.606;9.988;2023-04-15T06:21:30;23.33;;;13.40;;
57113;SDS011;42994;51.606;9.988;2023-04-15T06:23:57;21.67;;;13.02;;
57113;SDS011;42994;51.606;9.988;2023-04-15T06:26:25;21.70;;;13.23;;
57113;SDS011;42994;51.606;9.988;2023-04-15T06:28:52;20.48;;;13.07;;
57113;SDS011;42994;51.606;9.988;2023-04-15T06:31:18;25.23;;;13.75;;
57113;SDS011;42994;51.606;9.988;2023-04-15T06:33:45;21.02;;;12.63;;
57113;SDS011;42994;51.606;9.988;2023-04-15T06:36:13;22.38;;;12.80;;
57113;SDS011;42994;51.606;9.988;2023-04-15T06:38:40;21.83;;;12.88;;
57113;SDS011;42994;51.606;9.988;2023-04-15T06:41:07;20.02;;;12.27;;
57113;SDS011;42994;51.606;9.988;2023-04-15T06:43:34;19.65;;;12.63;;
57113;SDS011;42994;51.606;9.988;2023-04-15T06:46:00;22.33;;;11.90;;
57113;SDS011;42994;51.606;9.988;2023-04-15T06:48:27;20.73;;;13.23;;
57113;SDS011;42994;51.606;9.988;2023-04-15T06:50:59;22.25;;;13.07;;
57113;SDS011;42994;51.606;9.988;2023-04-15T06:53:30;18.25;;;12.25;;
57113;SDS011;42994;51.606;9.988;2023-04-15T06:55:57;21.52;;;13.43;;
57113;SDS011;42994;51.606;9.988;2023-04-15T06:58:24;22.50;;;13.23;;
57113;SDS011;42994;51.606;9.988;2023-04-15T07:00:51;21.42;;;13.32;;
57113;SDS011;42994;51.606;9.988;2023-04-15T07:03:18;25.55;;;13.73;;
57113;SDS011;42994;51.606;9.988;2023-04-15T07:05:44;20.35;;;13.27;;
57113;SDS011;42994;51.606;9.988;2023-04-15T07:08:11;19.77;;;13.38;;
57113;SDS011;42994;51.606;9.988;2023-04-15T07:10:39;17.92;;;12.07;;
57113;SDS011;42994;51.606;9.988;2023-04-15T07:13:06;22.10;;;13.35;;
57113;SDS011;42994;51.606;9.988;2023-04-15T07:15:33;21.17;;;13.07;;
57113;SDS011;42994;51.606;9.988;2023-04-15T07:17:59;22.70;;;13.82;;
57113;SDS011;42994;51.606;9.988;2023-04-15T07:20:26;21.75;;;13.63;;
57113;SDS011;42994;51.606;9.988;2023-04-15T07:22:53;23.88;;;14.05;;
57113;SDS011;42994;51.606;9.988;2023-04-15T07:25:19;20.50;;;13.45;;
57113;SDS011;42994;51.606;9.988;2023-04-15T07:27:47;22.30;;;13.15;;
57113;SDS011;42994;51.606;9.988;2023-04-15T07:30:14;21.83;;;15.05;;
57113;SDS011;42994;51.606;9.988;2023-04-15T07:32:41;23.77;;;14.77;;
57113;SDS011;42994;51.606;9.988;2023-04-15T07:35:08;23.92;;;13.88;;
57113;SDS011;42994;51.606;9.988;2023-04-15T07:37:35;18.95;;;13.23;;
57113;SDS011;42994;51.606;9.988;2023-04-15T07:40:02;19.38;;;11.93;;
57113;SDS011;42994;51.606;9.988;2023-04-15T07:42:31;21.67;;;13.60;;
57113;SDS011;42994;51.606;9.988;2023-04-15T07:44:59;23.13;;;13.38;;
57113;SDS011;42994;51.606;9.988;2023-04-15T07:47:25;18.70;;;11.48;;
57113;SDS011;42994;51.606;9.988;2023-04-15T07:49:52;18.25;;;11.82;;
57113;SDS011;42994;51.606;9.988;2023-04-15T07:52:18;17.00;;;10.35;;
57113;SDS011;42994;51.606;9.988;2023-04-15T07:54:45;18.45;;;11.82;;
57113;SDS011;42994;51.606;9.988;2023-04-15T07:57:12;19.58;;;12.25;;
57113;SDS011;42994;51.606;9.988;2023-04-15T07:59:39;13.77;;;9.32;;
57113;SDS011;42994;51.606;9.988;2023-04-15T08:02:07;16.42;;;10.27;;
57113;SDS011;42994;51.606;9.988;2023-04-15T08:04:34;14.10;;;9.60;;
57113;SDS011;42994;51.606;9.988;2023-04-15T08:07:01;14.77;;;10.07;;
57113;SDS011;42994;51.606;9.988;2023-04-15T08:09:28;13.68;;;8.77;;
57113;SDS011;42994;51.606;9.988;2023-04-15T08:11:54;13.88;;;9.05;;
57113;SDS011;42994;51.606;9.988;2023-04-15T08:14:21;11.05;;;8.07;;
57113;SDS011;42994;51.606;9.988;2023-04-15T08:16:49;11.38;;;7.75;;
57113;SDS011;42994;51.606;9.988;2023-04-15T08:19:17;10.43;;;7.10;;
57113;SDS011;42994;51.606;9.988;2023-04-15T08:21:44;10.82;;;7.60;;
57113;SDS011;42994;51.606;9.988;2023-04-15T08:24:11;10.98;;;7.07;;
57113;SDS011;42994;51.606;9.988;2023-04-15T08:26:38;9.95;;;6.65;;
57113;SDS011;42994;51.606;9.988;2023-04-15T08:29:06;11.18;;;7.40;;
57113;SDS011;42994;51.606;9.988;2023-04-15T08:31:33;10.10;;;6.65;;
57113;SDS011;42994;51.606;9.988;2023-04-15T08:33:59;8.82;;;6.13;;
57113;SDS011;42994;51.606;9.988;2023-04-15T08:36:28;10.07;;;7.05;;
57113;SDS011;42994;51.606;9.988;2023-04-15T08:38:54;10.32;;;6.43;;
57113;SDS011;42994;51.606;9.988;2023-04-15T08:41:22;8.98;;;6.35;;
57113;SDS011;42994;51.606;9.988;2023-04-15T08:43:52;9.38;;;7.13;;
57113;SDS011;42994;51.606;9.988;2023-04-15T08:46:22;9.32;;;6.55;;
57113;SDS011;42994;51.606;9.988;2023-04-15T08:48:49;12.20;;;6.70;;
57113;SDS011;42994;51.606;9.988;2023-04-15T08:51:16;8.90;;;6.50;;
57113;SDS011;42994;51.606;9.988;2023-04-15T08:53:45;7.30;;;5.65;;
57113;SDS011;42994;51.606;9.988;2023-04-15T08:56:12;7.93;;;6.13;;
57113;SDS011;42994;51.606;9.988;2023-04-15T08:58:40;9.48;;;6.38;;
57113;SDS011;42994;51.606;9.988;2023-04-15T09:01:08;8.20;;;5.75;;
57113;SDS011;42994;51.606;9.988;2023-04-15T09:03:37;7.75;;;5.63;;
57113;SDS011;42994;51.606;9.988;2023-04-15T09:06:04;10.80;;;5.75;;
57113;SDS011;42994;51.606;9.988;2023-04-15T09:08:31;7.72;;;5.32;;
57113;SDS011;42994;51.606;9.988;2023-04-15T09:11:00;6.80;;;5.22;;
57113;SDS011;42994;51.606;9.988;2023-04-15T09:13:27;6.35;;;4.78;;
57113;SDS011;42994;51.606;9.988;2023-04-15T09:15:53;6.07;;;4.95;;
57113;SDS011;42994;51.606;9.988;2023-04-15T09:18:27;5.88;;;4.43;;
57113;SDS011;42994;51.606;9.988;2023-04-15T09:20:55;7.90;;;5.75;;
57113;SDS011;42994;51.606;9.988;2023-04-15T09:23:22;6.32;;;4.88;;
57113;SDS011;42994;51.606;9.988;2023-04-15T09:25:48;7.35;;;5.10;;
57113;SDS011;42994;51.606;9.988;2023-04-15T09:28:22;6.30;;;4.90;;
57113;SDS011;42994;51.606;9.988;2023-04-15T09:30:50;7.03;;;5.32;;
57113;SDS011;42994;51.606;9.988;2023-04-15T09:33:17;5.50;;;4.35;;
57113;SDS011;42994;51.606;9.988;2023-04-15T09:35:51;5.95;;;4.80;;
57113;SDS011;42994;51.606;9.988;2023-04-15T09:38:22;7.22;;;4.72;;
57113;SDS011;42994;51.606;9.988;2023-04-15T09:40:48;9.32;;;8.18;;
57113;SDS011;42994;51.606;9.988;2023-04-15T09:43:17;9.82;;;6.97;;
57113;SDS011;42994;51.606;9.988;2023-04-15T09:45:46;8.63;;;6.65;;
57113;SDS011;42994;51.606;9.988;2023-04-15T09:48:14;6.63;;;4.80;;
57113;SDS011;42994;51.606;9.988;2023-04-15T09:50:42;12.90;;;10.68;;
57113;SDS011;42994;51.606;9.988;2023-04-15T09:53:10;10.05;;;8.52;;
57113;SDS011;42994;51.606;9.988;2023-04-15T09:55:36;30.65;;;27.20;;
57113;SDS011;42994;51.606;9.988;2023-04-15T09:58:07;8.27;;;6.72;;
57113;SDS011;42994;51.606;9.988;2023-04-15T10:00:36;6.95;;;4.43;;
57113;SDS011;42994;51.606;9.988;2023-04-15T10:03:04;7.25;;;4.32;;
57113;SDS011;42994;51.606;9.988;2023-04-15T10:05:31;6.80;;;4.30;;
57113;SDS011;42994;51.606;9.988;2023-04-15T10:07:59;5.55;;;4.00;;
57113;SDS011;42994;51.606;9.988;2023-04-15T10:10:26;6.32;;;4.30;;
57113;SDS011;42994;51.606;9.988;2023-04-15T10:12:53;5.35;;;4.28;;
57113;SDS011;42994;51.606;9.988;2023-04-15T10:15:21;4.22;;;3.63;;
57113;SDS011;42994;51.606;9.988;2023-04-15T10:17:51;7.07;;;3.75;;
57113;SDS011;42994;51.606;9.988;2023-04-15T10:20:19;8.65;;;4.28;;
57113;SDS011;42994;51.606;9.988;2023-04-15T10:22:47;6.18;;;4.18;;
57113;SDS011;42994;51.606;9.988;2023-04-15T10:25:14;5.32;;;4.07;;
57113;SDS011;42994;51.606;9.988;2023-04-15T10:27:41;4.65;;;3.72;;
57113;SDS011;42994;51.606;9.988;2023-04-15T10:30:08;4.45;;;3.50;;
57113;SDS011;42994;51.606;9.988;2023-04-15T10:32:36;4.65;;;3.83;;
57113;SDS011;42994;51.606;9.988;2023-04-15T10:35:06;4.75;;;3.90;;
57113;SDS011;42994;51.606;9.988;2023-04-15T10:37:34;4.88;;;3.92;;
57113;SDS011;42994;51.606;9.988;2023-04-15T10:40:22;4.10;;;3.10;;
57113;SDS011;42994;51.606;9.988;2023-04-15T10:42:50;5.25;;;3.80;;
57113;SDS011;42994;51.606;9.988;2023-04-15T10:45:17;6.00;;;3.63;;
57113;SDS011;42994;51.606;9.988;2023-04-15T10:47:44;4.00;;;3.38;;
57113;SDS011;42994;51.606;9.988;2023-04-15T10:50:12;3.80;;;3.08;;
57113;SDS011;42994;51.606;9.988;2023-04-15T10:52:39;4.97;;;3.33;;
57113;SDS011;42994;51.606;9.988;2023-04-15T10:55:11;3.58;;;3.28;;
57113;SDS011;42994;51.606;9.988;2023-04-15T10:57:40;5.05;;;3.90;;
57113;SDS011;42994;51.606;9.988;2023-04-15T11:00:09;5.88;;;4.05;;
57113;SDS011;42994;51.606;9.988;2023-04-15T11:02:40;5.30;;;3.85;;
57113;SDS011;42994;51.606;9.988;2023-04-15T11:05:08;6.97;;;4.78;;
57113;SDS011;42994;51.606;9.988;2023-04-15T11:12:53;7.18;;;4.90;;
57113;SDS011;42994;51.606;9.988;2023-04-15T11:15:27;6.15;;;4.70;;
57113;SDS011;42994;51.606;9.988;2023-04-15T11:17:55;7.85;;;5.35;;
57113;SDS011;42994;51.606;9.988;2023-04-15T11:20:22;8.40;;;5.90;;
57113;SDS011;42994;51.606;9.988;2023-04-15T11:22:51;8.13;;;5.55;;
57113;SDS011;42994;51.606;9.988;2023-04-15T11:25:22;7.68;;;5.38;;
57113;SDS011;42994;51.606;9.988;2023-04-15T11:27:49;6.93;;;5.25;;
57113;SDS011;42994;51.606;9.988;2023-04-15T11:30:17;7.88;;;5.47;;
57113;SDS011;42994;51.606;9.988;2023-04-15T11:32:46;7.07;;;5.80;;
57113;SDS011;42994;51.606;9.988;2023-04-15T11:35:13;7.07;;;5.20;;
57113;SDS011;42994;51.606;9.988;2023-04-15T11:37:39;9.13;;;6.32;;
57113;SDS011;42994;51.606;9.988;2023-04-15T11:40:09;8.57;;;6.18;;
57113;SDS011;42994;51.606;9.988;2023-04-15T11:42:36;8.70;;;5.93;;
57113;SDS011;42994;51.606;9.988;2023-04-15T11:45:06;9.13;;;6.43;;
57113;SDS011;42994;51.606;9.988;2023-04-15T11:47:36;8.48;;;6.20;;
57113;SDS011;42994;51.606;9.988;2023-04-15T11:50:16;9.38;;;6.78;;
57113;SDS011;42994;51.606;9.988;2023-04-15T11:52:52;14.38;;;9.07;;
57113;SDS011;42994;51.606;9.988;2023-04-15T11:55:21;19.15;;;13.50;;
57113;SDS011;42994;51.606;9.988;2023-04-15T11:57:48;13.73;;;9.23;;
57113;SDS011;42994;51.606;9.988;2023-04-15T12:00:15;16.23;;;8.85;;
57113;SDS011;42994;51.606;9.988;2023-04-15T12:02:42;20.85;;;10.95;;
57113;SDS011;42994;51.606;9.988;2023-04-15T12:05:09;14.00;;;8.95;;
57113;SDS011;42994;51.606;9.988;2023-04-15T12:10:25;9.25;;;6.28;;
57113;SDS011;42994;51.606;9.988;2023-04-15T12:12:53;12.05;;;7.05;;
57113;SDS011;42994;51.606;9.988;2023-04-15T12:15:20;10.50;;;6.88;;
57113;SDS011;42994;51.606;9.988;2023-04-15T12:17:48;11.23;;;6.72;;
57113;SDS011;42994;51.606;9.988;2023-04-15T12:20:19;9.70;;;6.65;;
57113;SDS011;42994;51.606;9.988;2023-04-15T12:22:47;10.93;;;6.00;;
57113;SDS011;42994;51.606;9.988;2023-04-15T12:25:14;10.88;;;7.25;;
57113;SDS011;42994;51.606;9.988;2023-04-15T12:27:53;12.23;;;7.20;;
57113;SDS011;42994;51.606;9.988;2023-04-15T12:30:26;12.98;;;7.97;;
57113;SDS011;42994;51.606;9.988;2023-04-15T12:33:14;10.25;;;7.25;;
57113;SDS011;42994;51.606;9.988;2023-04-15T12:35:47;10.65;;;7.20;;
57113;SDS011;42994;51.606;9.988;2023-04-15T12:38:14;12.02;;;7.20;;
57113;SDS011;42994;51.606;9.988;2023-04-15T12:40:40;11.25;;;7.15;;
57113;SDS011;42994;51.606;9.988;2023-04-15T12:43:18;12.75;;;7.13;;
57113;SDS011;42994;51.606;9.988;2023-04-15T12:59:06;12.57;;;7.85;;
57113;SDS011;42994;51.606;9.988;2023-04-15T13:01:32;13.07;;;8.20;;
57113;SDS011;42994;51.606;9.988;2023-04-15T13:04:00;12.60;;;7.35;;
57113;SDS011;42994;51.606;9.988;2023-04-15T13:06:27;13.98;;;8.18;;
57113;SDS011;42994;51.606;9.988;2023-04-15T13:08:54;15.65;;;9.30;;
57113;SDS011;42994;51.606;9.988;2023-04-15T13:11:21;14.07;;;9.05;;
57113;SDS011;42994;51.606;9.988;2023-04-15T13:13:48;15.32;;;8.70;;
57113;SDS011;42994;51.606;9.988;2023-04-15T13:16:17;24.88;;;9.85;;
57113;SDS011;42994;51.606;9.988;2023-04-15T13:18:44;18.67;;;9.68;;
57113;SDS011;42994;51.606;9.988;2023-04-15T13:21:11;17.90;;;9.63;;
57113;SDS011;42994;51.606;9.988;2023-04-15T13:23:40;14.35;;;9.35;;
57113;SDS011;42994;51.606;9.988;2023-04-15T13:26:06;15.50;;;9.07;;
57113;SDS011;42994;51.606;9.988;2023-04-15T13:28:33;14.93;;;9.15;;
57113;SDS011;42994;51.606;9.988;2023-04-15T13:31:00;13.70;;;8.50;;
57113;SDS011;42994;51.606;9.988;2023-04-15T13:33:28;16.30;;;10.27;;
57113;SDS011;42994;51.606;9.988;2023-04-15T13:35:55;14.13;;;7.90;;
57113;SDS011;42994;51.606;9.988;2023-04-15T13:38:23;12.43;;;7.90;;
57113;SDS011;42994;51.606;9.988;2023-04-15T13:40:50;15.63;;;9.40;;
57113;SDS011;42994;51.606;9.988;2023-04-15T13:43:17;12.13;;;7.82;;
57113;SDS011;42994;51.606;9.988;2023-04-15T13:45:45;18.70;;;11.48;;
57113;SDS011;42994;51.606;9.988;2023-04-15T13:48:13;14.55;;;9.77;;
57113;SDS011;42994;51.606;9.988;2023-04-15T13:50:41;13.85;;;9.18;;
57113;SDS011;42994;51.606;9.988;2023-04-15T13:53:09;18.75;;;9.43;;
57113;SDS011;42994;51.606;9.988;2023-04-15T13:55:36;15.35;;;8.73;;
57113;SDS011;42994;51.606;9.988;2023-04-15T13:58:05;14.73;;;8.38;;
57113;SDS011;42994;51.606;9.988;2023-04-15T14:00:32;13.65;;;8.13;;
57113;SDS011;42994;51.606;9.988;2023-04-15T14:02:59;19.45;;;8.52;;
57113;SDS011;42994;51.606;9.988;2023-04-15T14:05:25;15.48;;;9.27;;
57113;SDS011;42994;51.606;9.988;2023-04-15T14:07:53;11.98;;;8.57;;
57113;SDS011;42994;51.606;9.988;2023-04-15T14:10:20;15.70;;;8.98;;
57113;SDS011;42994;51.606;9.988;2023-04-15T14:12:47;13.43;;;8.85;;
57113;SDS011;42994;51.606;9.988;2023-04-15T14:15:13;18.30;;;9.65;;
57113;SDS011;42994;51.606;9.988;2023-04-15T14:17:40;15.45;;;9.70;;
57113;SDS011;42994;51.606;9.988;2023-04-15T14:20:07;15.10;;;8.93;;
57113;SDS011;42994;51.606;9.988;2023-04-15T14:22:35;15.50;;;9.35;;
57113;SDS011;42994;51.606;9.988;2023-04-15T14:25:03;17.98;;;9.93;;
57113;SDS011;42994;51.606;9.988;2023-04-15T14:27:30;16.48;;;8.98;;
57113;SDS011;42994;51.606;9.988;2023-04-15T14:29:57;15.82;;;10.23;;
57113;SDS011;42994;51.606;9.988;2023-04-15T14:32:24;16.63;;;9.25;;
57113;SDS011;42994;51.606;9.988;2023-04-15T14:34:50;17.63;;;9.60;;
57113;SDS011;42994;51.606;9.988;2023-04-15T14:37:17;17.13;;;10.18;;
57113;SDS011;42994;51.606;9.988;2023-04-15T14:39:44;17.92;;;10.80;;
57113;SDS011;42994;51.606;9.988;2023-04-15T14:42:12;15.63;;;9.55;;
57113;SDS011;42994;51.606;9.988;2023-04-15T14:44:38;16.77;;;9.70;;
57113;SDS011;42994;51.606;9.988;2023-04-15T14:47:05;17.17;;;10.15;;
57113;SDS011;42994;51.606;9.988;2023-04-15T14:49:32;17.45;;;10.10;;
57113;SDS011;42994;51.606;9.988;2023-04-15T14:51:58;17.85;;;10.35;;
57113;SDS011;42994;51.606;9.988;2023-04-15T14:54:25;16.77;;;9.90;;
57113;SDS011;42994;51.606;9.988;2023-04-15T14:56:51;15.98;;;9.55;;